Time;durP1;ratioP1;P1;durP2;ratioP2;P2;SDS_P1;SDS_P2;PMS_P1;PMS_P2;Temp;Humidity;BMP_temperature;BMP_pressure;BME280_temperature;BME280_humidity;BME280_pressure;Samples;Min_cycle;Max_cycle;Signal;HPM_P1;HPM_P2
2021/12/21 00:00:13;;;;;;;41.80;17.63;;;;;;;-4.73;100.00;102806.06;4899190;29;20067;-69
2021/12/21 00:02:43;;;;;;;44.03;19.63;;;;;;;-4.77;100.00;102801.84;4905598;29;20151;-69
2021/12/21 00:05:15;;;;;;;40.78;19.45;;;;;;;-4.77;100.00;102809.75;4890792;28;20141;-69
2021/12/21 00:07:41;;;;;;;39.80;18.77;;;;;;;-4.73;100.00;102806.06;4905152;29;21278;-69
2021/12/21 00:10:07;;;;;;;37.67;18.90;;;;;;;-4.64;100.00;102810.91;4899621;29;20047;-69
2021/12/21 00:12:34;;;;;;;37.85;17.52;;;;;;;-4.57;100.00;102812.34;4894732;29;20122;-69
2021/12/21 00:15:07;;;;;;;33.83;17.00;;;;;;;-4.55;100.00;102814.94;4905379;29;20238;-69
2021/12/21 00:17:50;;;;;;;38.60;17.75;;;;;;;-4.61;100.00;102809.94;4890189;28;20051;-70
2021/12/21 00:25:20;;;;;;;33.72;16.33;;;;;;;-4.86;100.00;102808.34;4907753;29;20043;-69
2021/12/21 00:27:47;;;;;;;34.72;15.35;;;;;;;-4.89;100.00;102805.00;4885626;29;20118;-69
2021/12/21 00:30:13;;;;;;;34.83;15.52;;;;;;;-4.93;100.00;102806.03;4879806;29;20087;-69
2021/12/21 00:32:38;;;;;;;31.73;16.73;;;;;;;-4.98;100.00;102801.00;4876359;29;20502;-68
2021/12/21 00:35:05;;;;;;;29.60;15.75;;;;;;;-4.96;100.00;102800.91;4891264;28;20055;-68
2021/12/21 00:37:31;;;;;;;33.83;16.52;;;;;;;-4.96;100.00;102803.53;4908456;29;20039;-69
2021/12/21 00:39:56;;;;;;;32.63;15.82;;;;;;;-4.97;100.00;102807.09;4902528;29;20144;-69
2021/12/21 00:42:21;;;;;;;35.72;16.13;;;;;;;-5.04;100.00;102799.47;4896110;29;20118;-69
2021/12/21 00:44:47;;;;;;;35.50;15.88;;;;;;;-5.10;100.00;102804.09;4888046;29;20031;-69
2021/12/21 00:47:15;;;;;;;37.08;15.77;;;;;;;-5.19;100.00;102794.00;4889829;28;20113;-68
2021/12/21 00:49:45;;;;;;;30.70;15.80;;;;;;;-5.22;100.00;102794.97;4906169;29;20046;-68
2021/12/21 00:52:11;;;;;;;30.58;15.15;;;;;;;-5.23;100.00;102795.00;4901429;28;20090;-69
2021/12/21 00:54:37;;;;;;;37.88;18.40;;;;;;;-5.28;100.00;102793.44;4896278;29;20051;-68
2021/12/21 00:57:04;;;;;;;28.65;15.98;;;;;;;-5.26;100.00;102796.00;4890706;29;20062;-69
2021/12/21 00:59:30;;;;;;;35.78;16.55;;;;;;;-5.23;100.00;102798.53;4879379;29;20056;-69
2021/12/21 01:01:56;;;;;;;33.67;17.45;;;;;;;-5.27;100.00;102799.53;4893414;29;20043;-69
2021/12/21 01:04:27;;;;;;;34.08;17.10;;;;;;;-5.29;100.00;102796.13;4884278;28;20559;-69
2021/12/21 01:11:54;;;;;;;33.67;17.25;;;;;;;-5.06;100.00;102793.41;4890012;28;21043;-68
2021/12/21 01:19:40;;;;;;;36.75;16.40;;;;;;;-4.94;100.00;102785.94;4906665;29;19956;-69
2021/12/21 01:27:25;;;;;;;36.95;16.27;;;;;;;-4.93;100.00;102792.91;4905499;29;20046;-69
2021/12/21 01:30:05;;;;;;;33.75;16.40;;;;;;;-4.91;100.00;102785.81;4890404;29;20193;-69
2021/12/21 01:35:25;;;;;;;36.80;17.00;;;;;;;-4.95;100.00;102786.84;4891351;28;20695;-69
2021/12/21 01:38:24;;;;;;;34.22;16.00;;;;;;;-4.99;100.00;102793.16;4906962;29;20044;-69
2021/12/21 01:51:00;;;;;;;36.53;14.80;;;;;;;-5.12;100.00;102777.91;4890618;28;20077;-68
2021/12/21 01:53:25;;;;;;;34.97;15.82;;;;;;;-5.13;100.00;102781.44;4868427;29;20055;-68
2021/12/21 01:55:51;;;;;;;30.90;15.52;;;;;;;-5.16;100.00;102781.59;4902578;29;20055;-67
2021/12/21 01:58:16;;;;;;;37.17;16.00;;;;;;;-5.22;100.00;102776.56;4898981;29;20035;-68
2021/12/21 02:00:42;;;;;;;34.20;15.30;;;;;;;-5.23;100.00;102782.75;4890348;29;20083;-68
2021/12/21 02:03:09;;;;;;;36.72;15.27;;;;;;;-5.20;100.00;102774.72;4888743;29;20023;-70
2021/12/21 02:05:36;;;;;;;29.02;15.60;;;;;;;-5.20;100.00;102773.88;4887855;28;20059;-68
2021/12/21 02:08:01;;;;;;;33.88;17.48;;;;;;;-5.17;100.00;102764.09;4901251;29;20031;-68
2021/12/21 02:10:27;;;;;;;31.40;16.88;;;;;;;-5.20;100.00;102769.47;4898195;29;20810;-68
2021/12/21 02:12:53;;;;;;;31.20;16.45;;;;;;;-5.26;100.00;102759.25;4892288;29;20061;-68
2021/12/21 02:15:18;;;;;;;44.78;17.27;;;;;;;-5.21;100.00;102765.13;4887250;29;20042;-68
2021/12/21 02:23:12;;;;;;;27.15;16.63;;;;;;;-5.13;100.00;102760.41;4896598;28;20515;-68
2021/12/21 02:26:02;;;;;;;27.10;16.10;;;;;;;-5.13;100.00;102752.53;4903779;29;20044;-68
2021/12/21 02:30:56;;;;;;;31.63;15.93;;;;;;;-5.09;100.00;102751.50;4891629;29;20063;-68
2021/12/21 02:33:23;;;;;;;32.53;16.40;;;;;;;-5.04;100.00;102746.91;4872181;29;20035;-69
2021/12/21 02:35:49;;;;;;;35.95;16.38;;;;;;;-4.95;100.00;102748.28;4854276;29;20070;-68
2021/12/21 02:38:14;;;;;;;34.17;15.23;;;;;;;-4.95;100.00;102742.16;4887342;29;20058;-68
2021/12/21 02:40:40;;;;;;;32.15;16.13;;;;;;;-4.98;100.00;102742.28;4903204;29;20122;-68
2021/12/21 02:43:05;;;;;;;34.83;15.32;;;;;;;-5.10;100.00;102743.66;4897379;29;20595;-68
2021/12/21 02:45:31;;;;;;;34.63;14.48;;;;;;;-5.26;100.00;102738.22;4886832;29;21029;-68
2021/12/21 02:47:56;;;;;;;28.60;14.48;;;;;;;-5.28;100.00;102747.94;4886006;29;20078;-68
2021/12/21 02:50:22;;;;;;;27.17;13.90;;;;;;;-5.31;100.00;102740.16;4905139;28;20074;-68
2021/12/21 02:52:48;;;;;;;32.33;15.20;;;;;;;-5.34;100.00;102743.75;4881457;29;20032;-68
2021/12/21 02:55:14;;;;;;;26.10;15.40;;;;;;;-5.44;100.00;102738.94;4895197;29;20058;-68
2021/12/21 02:57:41;;;;;;;26.67;13.43;;;;;;;-5.55;100.00;102745.50;4876281;29;20768;-68
2021/12/21 03:00:09;;;;;;;29.00;14.20;;;;;;;-5.59;100.00;102743.91;4888221;29;20055;-68
2021/12/21 03:02:35;;;;;;;27.95;15.15;;;;;;;-5.62;100.00;102740.56;4904927;28;20035;-68
2021/12/21 03:05:01;;;;;;;26.23;13.70;;;;;;;-5.64;100.00;102738.00;4901797;29;20046;-68
2021/12/21 03:08:01;;;;;;;32.28;15.95;;;;;;;-5.62;100.00;102736.16;4899467;29;20138;-68
2021/12/21 03:10:23;;;;;;;;;;;;;;;-5.49;100.00;102738.31;4907883;29;20043;-68
2021/12/21 03:15:28;;;;;;;25.00;13.40;;;;;;;-5.46;100.00;102727.69;4891880;29;20163;-68
2021/12/21 03:17:55;;;;;;;28.00;13.27;;;;;;;-5.52;100.00;102727.00;4892639;29;20162;-68
2021/12/21 03:20:21;;;;;;;28.52;14.35;;;;;;;-5.46;100.00;102732.94;4907327;29;21188;-68
2021/12/21 03:22:47;;;;;;;26.60;14.20;;;;;;;-5.42;100.00;102731.88;4905728;28;20057;-69
2021/12/21 03:25:13;;;;;;;36.53;13.90;;;;;;;-5.37;100.00;102725.53;4878255;28;20047;-69
2021/12/21 03:27:39;;;;;;;25.45;14.40;;;;;;;-5.31;100.00;102729.66;4891224;29;20035;-68
2021/12/21 03:30:06;;;;;;;34.58;14.93;;;;;;;-5.25;100.00;102724.16;4894117;28;20063;-68
2021/12/21 03:32:32;;;;;;;24.25;14.63;;;;;;;-5.15;100.00;102730.72;4894477;29;20077;-68
2021/12/21 03:34:57;;;;;;;28.50;15.13;;;;;;;-5.08;100.00;102724.31;4873729;29;20039;-69
2021/12/21 03:37:22;;;;;;;28.52;14.50;;;;;;;-5.08;100.00;102723.44;4899889;29;20798;-67
2021/12/21 03:39:50;;;;;;;31.75;13.77;;;;;;;-5.09;100.00;102725.22;4891347;29;20035;-68
2021/12/21 03:42:16;;;;;;;27.35;12.40;;;;;;;-5.17;100.00;102727.31;4891613;28;20047;-68
2021/12/21 03:44:42;;;;;;;34.97;15.68;;;;;;;-5.28;100.00;102727.75;4908215;29;20889;-68
2021/12/21 03:47:10;;;;;;;26.27;15.35;;;;;;;-5.34;100.00;102722.75;4901242;28;20187;-68
2021/12/21 03:52:09;;;;;;;29.73;13.55;;;;;;;-5.41;100.00;102723.06;4894236;29;20997;-68
2021/12/21 03:54:35;;;;;;;26.60;14.15;;;;;;;-5.43;100.00;102720.53;4874315;29;20826;-68
2021/12/21 03:57:02;;;;;;;30.52;13.32;;;;;;;-5.48;100.00;102716.38;4907890;29;20114;-68
2021/12/21 03:59:28;;;;;;;25.50;14.77;;;;;;;-5.46;100.00;102720.66;4880901;29;20055;-68
2021/12/21 04:01:53;;;;;;;27.60;13.73;;;;;;;-5.48;100.00;102716.38;4896709;28;20142;-68
2021/12/21 04:04:19;;;;;;;24.98;13.50;;;;;;;-5.45;100.00;102716.25;4906045;29;20117;-69
2021/12/21 04:06:45;;;;;;;26.35;14.15;;;;;;;-5.37;100.00;102715.03;4887800;29;20063;-68
2021/12/21 04:09:11;;;;;;;31.50;14.10;;;;;;;-5.28;100.00;102716.41;4904436;29;20693;-68
2021/12/21 04:11:36;;;;;;;24.23;13.73;;;;;;;-5.30;100.00;102715.59;4902434;29;20107;-67
2021/12/21 04:14:02;;;;;;;25.60;14.43;;;;;;;-5.33;100.00;102715.75;4899459;28;20082;-68
2021/12/21 04:16:28;;;;;;;25.80;12.38;;;;;;;-5.43;100.00;102714.41;4907909;28;20049;-68
2021/12/21 04:18:54;;;;;;;24.00;12.57;;;;;;;-5.49;100.00;102715.50;4891024;29;20496;-68
2021/12/21 04:21:19;;;;;;;26.30;13.13;;;;;;;-5.53;100.00;102719.19;4889274;29;20067;-68
2021/12/21 04:23:45;;;;;;;26.42;13.18;;;;;;;-5.59;100.00;102709.78;4882284;29;20058;-69
2021/12/21 04:26:12;;;;;;;35.83;14.25;;;;;;;-5.62;100.00;102709.91;4881998;29;20400;-69
2021/12/21 04:28:38;;;;;;;26.25;12.18;;;;;;;-5.64;100.00;102711.75;4906185;29;20032;-68
2021/12/21 04:31:04;;;;;;;25.73;12.98;;;;;;;-5.67;100.00;102711.88;4872489;29;20121;-69
2021/12/21 04:33:30;;;;;;;27.27;13.32;;;;;;;-5.73;100.00;102711.25;4892182;29;20487;-69
2021/12/21 04:35:56;;;;;;;24.98;12.23;;;;;;;-5.79;100.00;102714.97;4875909;29;20146;-68
2021/12/21 04:38:25;;;;;;;29.00;11.98;;;;;;;-5.88;100.00;102712.72;4889598;29;22711;-68
2021/12/21 04:40:57;;;;;;;19.15;11.77;;;;;;;-5.97;100.00;102700.00;4875257;29;20035;-68
2021/12/21 04:43:22;;;;;;;25.00;12.07;;;;;;;-6.04;100.00;102709.88;4891756;29;20138;-68
2021/12/21 04:45:48;;;;;;;27.15;12.90;;;;;;;-6.08;100.00;102717.00;4906134;28;20506;-68
2021/12/21 04:48:14;;;;;;;19.60;10.98;;;;;;;-6.11;100.00;102706.63;4889130;29;20162;-68
2021/12/21 04:50:41;;;;;;;22.75;11.98;;;;;;;-6.10;100.00;102708.38;4905090;29;20032;-68
2021/12/21 04:53:06;;;;;;;23.42;11.27;;;;;;;-6.11;100.00;102711.88;4889830;29;25258;-68
2021/12/21 04:55:31;;;;;;;24.58;11.57;;;;;;;-6.13;100.00;102700.59;4894723;28;20071;-68
2021/12/21 04:57:57;;;;;;;24.50;12.73;;;;;;;-6.13;100.00;102700.59;4903906;29;20054;-68
2021/12/21 05:00:23;;;;;;;24.30;12.02;;;;;;;-6.17;100.00;102691.16;4870791;29;20059;-68
2021/12/21 05:02:49;;;;;;;22.00;11.70;;;;;;;-6.21;100.00;102701.81;4888098;29;20772;-68
2021/12/21 05:05:14;;;;;;;18.50;11.20;;;;;;;-6.28;100.00;102691.56;4898719;28;20050;-69
2021/12/21 05:07:42;;;;;;;24.10;10.75;;;;;;;-6.31;100.00;102698.69;4880678;29;20059;-68
2021/12/21 05:10:10;;;;;;;24.52;11.95;;;;;;;-6.31;100.00;102698.69;4905587;29;20043;-68
2021/12/21 05:12:36;;;;;;;22.10;11.88;;;;;;;-6.32;100.00;102699.59;4873649;29;20066;-68
2021/12/21 05:15:03;;;;;;;19.45;11.80;;;;;;;-6.27;100.00;102695.03;4889790;29;20198;-68
2021/12/21 05:17:28;;;;;;;25.45;10.50;;;;;;;-6.25;100.00;102693.19;4901254;29;20074;-68
2021/12/21 05:19:54;;;;;;;22.73;12.02;;;;;;;-6.22;100.00;102698.31;4896085;29;20052;-68
2021/12/21 05:22:19;;;;;;;18.40;9.75;;;;;;;-6.24;100.00;102700.16;4907562;29;20515;-68
2021/12/21 05:24:45;;;;;;;22.73;12.13;;;;;;;-6.30;100.00;102692.53;4891084;29;20082;-68
2021/12/21 05:27:10;;;;;;;18.40;11.25;;;;;;;-6.32;100.00;102707.47;4906093;28;20039;-68
2021/12/21 05:29:36;;;;;;;21.52;10.57;;;;;;;-6.31;100.00;102698.69;4900886;28;20497;-68
2021/12/21 05:32:02;;;;;;;20.40;10.98;;;;;;;-6.32;100.00;102696.97;4895265;29;20052;-68
2021/12/21 05:34:28;;;;;;;21.63;11.13;;;;;;;-6.39;100.00;102688.47;4903943;29;20038;-68
2021/12/21 05:36:54;;;;;;;21.80;10.65;;;;;;;-6.41;100.00;102697.34;4861150;29;20062;-68
2021/12/21 05:39:24;;;;;;;17.75;10.48;;;;;;;-6.38;100.00;102702.47;4906740;29;20055;-68
2021/12/21 05:41:55;;;;;;;15.95;9.27;;;;;;;-6.40;100.00;102704.28;4899300;28;20083;-68
2021/12/21 05:44:23;;;;;;;19.02;10.02;;;;;;;-6.30;100.00;102705.63;4880099;29;20163;-68
2021/12/21 05:46:53;;;;;;;18.40;10.82;;;;;;;-6.27;100.00;102695.88;4905053;29;20031;-68
2021/12/21 05:49:19;;;;;;;20.08;10.70;;;;;;;-6.30;100.00;102695.16;4889247;28;20139;-68
2021/12/21 05:51:45;;;;;;;20.15;10.57;;;;;;;-6.27;100.00;102701.13;4905451;29;20050;-68
2021/12/21 05:54:12;;;;;;;19.10;10.68;;;;;;;-6.25;100.00;102694.06;4871175;28;20051;-68
2021/12/21 05:56:38;;;;;;;16.58;9.85;;;;;;;-6.17;100.00;102695.53;4888533;29;20038;-68
2021/12/21 05:59:04;;;;;;;19.15;10.40;;;;;;;-6.13;100.00;102700.59;4904551;28;20066;-68
2021/12/21 06:01:33;;;;;;;17.02;10.82;;;;;;;-6.12;100.00;102699.69;4870409;28;20663;-68
2021/12/21 06:04:00;;;;;;;18.42;10.40;;;;;;;-6.18;100.00;102694.66;4884666;29;20039;-68
2021/12/21 06:06:26;;;;;;;17.38;10.05;;;;;;;-6.23;100.00;102701.88;4886757;28;20131;-69
2021/12/21 06:08:53;;;;;;;18.30;10.27;;;;;;;-6.30;100.00;102703.03;4903476;29;20041;-68
2021/12/21 06:11:21;;;;;;;23.08;10.90;;;;;;;-6.32;100.00;102702.22;4886930;29;20055;-69
2021/12/21 06:27:07;;;;;;;19.42;11.30;;;;;;;-6.12;100.00;102698.84;4905892;29;23848;-68
2021/12/21 06:29:32;;;;;;;17.35;10.05;;;;;;;-6.03;100.00;102715.09;4902075;28;20039;-69
2021/12/21 06:31:58;;;;;;;14.48;9.70;;;;;;;-6.07;100.00;102700.38;4875960;29;20055;-68
2021/12/21 06:34:24;;;;;;;16.65;9.27;;;;;;;-6.15;100.00;102705.03;4888283;29;20554;-68
2021/12/21 06:36:49;;;;;;;14.23;8.98;;;;;;;-6.24;100.00;102705.41;4855548;29;20070;-69
2021/12/21 06:39:15;;;;;;;17.52;10.40;;;;;;;-6.35;100.00;102703.19;4904550;29;20420;-69
2021/12/21 06:41:40;;;;;;;17.67;9.63;;;;;;;-6.39;100.00;102703.34;4900755;29;20036;-69
2021/12/21 06:44:09;;;;;;;16.02;9.98;;;;;;;-6.46;100.00;102704.50;4888982;28;20101;-69
2021/12/21 06:51:58;;;;;;;16.95;8.95;;;;;;;-6.57;100.00;102711.00;4891478;29;20339;-68
2021/12/21 06:54:23;;;;;;;20.80;10.68;;;;;;;-6.53;100.00;102712.63;4896132;29;20050;-69
2021/12/21 06:56:49;;;;;;;18.58;10.18;;;;;;;-6.53;100.00;102702.13;4894817;29;20052;-69
2021/12/21 06:59:15;;;;;;;19.80;9.82;;;;;;;-6.51;100.00;102709.94;4887361;29;20035;-69
2021/12/21 07:01:40;;;;;;;18.30;10.73;;;;;;;-6.53;100.00;102710.00;4886761;29;20519;-69
2021/12/21 07:04:07;;;;;;;14.90;10.18;;;;;;;-6.56;100.00;102717.13;4904436;29;20031;-69
2021/12/21 07:06:34;;;;;;;18.23;9.35;;;;;;;-6.59;100.00;102720.69;4870273;29;20054;-70
2021/12/21 07:09:23;;;;;;;17.67;10.38;;;;;;;-6.61;100.00;102722.50;4901101;29;20039;-69
2021/12/21 07:17:58;;;;;;;15.38;9.30;;;;;;;-6.65;100.00;102725.31;4901189;29;20051;-69
2021/12/21 07:20:06;;;;;;;28.15;11.48;;;;;;;-6.56;100.00;102717.97;4889343;28;20055;-70
2021/12/21 07:22:31;;;;;;;22.20;10.73;;;;;;;-6.52;100.00;102727.44;4901814;28;20039;-70
2021/12/21 07:24:57;;;;;;;25.52;10.02;;;;;;;-6.50;100.00;102722.09;4888785;29;20139;-69
2021/12/21 07:27:22;;;;;;;18.50;10.05;;;;;;;-6.54;100.00;102718.75;4905091;29;20119;-70
2021/12/21 07:29:49;;;;;;;26.40;11.02;;;;;;;-6.58;100.00;102722.41;4886743;29;20658;-69
2021/12/21 07:32:15;;;;;;;19.88;9.25;;;;;;;-6.62;100.00;102723.44;4875306;29;20055;-69
2021/12/21 07:34:40;;;;;;;18.73;10.65;;;;;;;-6.66;100.00;102721.84;4886434;29;20062;-69
2021/12/21 07:37:09;;;;;;;17.40;10.32;;;;;;;-6.65;100.00;102730.56;4887365;29;20532;-69
2021/12/21 07:39:35;;;;;;;20.73;10.80;;;;;;;-6.56;100.00;102725.84;4902031;29;20046;-69
2021/12/21 07:42:00;;;;;;;18.35;9.45;;;;;;;-6.53;100.00;102724.84;4885511;29;20031;-69
2021/12/21 07:44:26;;;;;;;17.48;9.65;;;;;;;-6.53;100.00;102723.09;4888520;29;20086;-69
2021/12/21 07:46:51;;;;;;;19.08;9.57;;;;;;;-6.52;100.00;102724.81;4904577;28;20455;-69
2021/12/21 07:49:17;;;;;;;17.80;9.52;;;;;;;-6.53;100.00;102730.97;4871507;29;20089;-69
2021/12/21 07:51:43;;;;;;;16.88;9.80;;;;;;;-6.46;100.00;102731.56;4890586;29;20035;-67
2021/12/21 07:54:08;;;;;;;21.45;10.90;;;;;;;-6.36;100.00;102729.47;4906552;29;20071;-68
2021/12/21 07:56:34;;;;;;;17.60;10.07;;;;;;;-6.28;100.00;102730.06;4894118;29;20138;-68
2021/12/21 07:58:59;;;;;;;18.23;10.35;;;;;;;-6.34;100.00;102719.78;4891316;29;20066;-69
2021/12/21 08:01:26;;;;;;;19.80;9.80;;;;;;;-6.39;100.00;102727.81;4892916;28;20066;-69
2021/12/21 08:03:53;;;;;;;16.20;10.25;;;;;;;-6.44;100.00;102734.16;4908002;29;20047;-69
2021/12/21 08:06:18;;;;;;;20.50;9.95;;;;;;;-6.42;100.00;102735.81;4903585;28;20098;-69
2021/12/21 08:08:45;;;;;;;15.80;9.77;;;;;;;-6.37;100.00;102733.00;4897177;29;20083;-69
2021/12/21 08:11:27;;;;;;;14.50;8.98;;;;;;;-6.33;100.00;102731.97;4903223;28;20047;-69
2021/12/21 08:13:53;;;;;;;16.45;9.68;;;;;;;-6.31;100.00;102728.41;4876123;29;20107;-69
2021/12/21 08:16:18;;;;;;;20.15;8.73;;;;;;;-6.28;100.00;102723.03;4905213;29;20043;-68
2021/12/21 08:18:44;;;;;;;15.63;9.90;;;;;;;-6.24;100.00;102726.41;4883395;29;20056;-69
2021/12/21 08:21:12;;;;;;;20.65;9.18;;;;;;;-6.18;100.00;102715.66;4894645;29;20066;-69
2021/12/21 08:23:38;;;;;;;18.55;9.63;;;;;;;-6.17;100.00;102717.38;4904966;29;20036;-69
2021/12/21 08:26:05;;;;;;;14.30;8.77;;;;;;;-6.09;100.00;102725.81;4889738;28;20086;-70
2021/12/21 08:28:31;;;;;;;18.70;10.50;;;;;;;-5.91;100.00;102720.72;4906503;29;20042;-70
2021/12/21 08:30:57;;;;;;;18.77;11.82;;;;;;;-5.53;100.00;102717.41;4897866;29;20051;-69
2021/12/21 08:33:22;;;;;;;22.40;10.82;;;;;;;-4.99;100.00;102715.16;4879785;29;20074;-69
2021/12/21 08:35:48;;;;;;;25.30;10.63;;;;;;;-4.51;100.00;102706.03;4906483;29;20578;-70
2021/12/21 08:38:16;;;;;;;16.92;10.02;;;;;;;-4.13;100.00;102717.41;4860727;29;20379;-70
2021/12/21 08:40:47;;;;;;;19.20;10.73;;;;;;;-3.70;100.00;102715.38;4887901;28;20042;-70
2021/12/21 08:43:15;;;;;;;20.15;11.25;;;;;;;-3.32;100.00;102720.53;4871748;28;20052;-68
2021/12/21 08:45:43;;;;;;;18.58;11.00;;;;;;;-2.98;100.00;102716.19;4901931;29;20118;-70
2021/12/21 08:48:09;;;;;;;17.05;10.10;;;;;;;-2.71;100.00;102719.16;4897099;29;20039;-69
2021/12/21 08:50:36;;;;;;;22.10;10.98;;;;;;;-2.42;100.00;102712.38;4873053;29;20086;-68
2021/12/21 08:53:01;;;;;;;18.02;10.10;;;;;;;-2.14;100.00;102710.84;4895982;29;20777;-69
2021/12/21 08:55:27;;;;;;;19.65;10.95;;;;;;;-1.80;100.00;102715.94;4893891;28;20064;-69
2021/12/21 08:57:53;;;;;;;19.38;11.85;;;;;;;-1.52;100.00;102720.50;4913016;28;20047;-69
2021/12/21 09:00:18;;;;;;;24.00;11.35;;;;;;;-1.39;100.00;102718.03;4893581;28;20035;-70
2021/12/21 09:02:44;;;;;;;17.67;10.57;;;;;;;-1.32;100.00;102716.72;4875554;29;20516;-71
2021/12/21 09:05:12;;;;;;;16.35;8.60;;;;;;;-1.28;100.00;102707.66;4888631;29;20486;-71
2021/12/21 09:07:39;;;;;;;18.00;9.50;;;;;;;-1.17;100.00;102719.41;4889479;29;20538;-72
2021/12/21 09:10:06;;;;;;;19.08;10.32;;;;;;;-1.01;100.00;102718.41;4889051;29;20628;-71
2021/12/21 09:12:32;;;;;;;20.48;11.38;;;;;;;-0.80;100.00;102724.22;4888466;29;20492;-71
2021/12/21 09:14:58;;;;;;;19.17;10.05;;;;;;;-0.80;100.00;102723.38;4892699;29;20048;-70
2021/12/21 09:17:24;;;;;;;20.08;10.82;;;;;;;-0.76;100.00;102720.44;4906014;29;20101;-69
2021/12/21 09:19:50;;;;;;;23.15;11.32;;;;;;;-0.74;100.00;102729.13;4860714;29;20047;-69
2021/12/21 09:22:16;;;;;;;18.17;10.63;;;;;;;-0.65;100.00;102721.56;4906520;29;20042;-70
2021/12/21 09:24:41;;;;;;;21.48;10.63;;;;;;;-0.51;100.00;102727.72;4901965;29;20515;-70
2021/12/21 09:27:07;;;;;;;22.55;11.80;;;;;;;-0.32;100.00;102721.28;4877485;29;20107;-70
2021/12/21 09:29:32;;;;;;;22.98;10.90;;;;;;;-0.29;100.00;102729.88;4904951;29;20604;-71
2021/12/21 09:31:58;;;;;;;25.15;11.18;;;;;;;-0.26;100.00;102728.84;4891811;28;20051;-71
2021/12/21 09:34:23;;;;;;;20.25;10.90;;;;;;;-0.17;100.00;102724.78;4887982;29;20040;-71
2021/12/21 09:36:49;;;;;;;20.90;10.55;;;;;;;-0.05;100.00;102737.25;4899753;28;20039;-71
2021/12/21 09:39:14;;;;;;;21.92;10.18;;;;;;;0.27;100.00;102736.97;4894743;28;20047;-72
2021/12/21 09:41:40;;;;;;;20.35;10.68;;;;;;;0.58;100.00;102731.38;4904366;29;20107;-70
2021/12/21 09:44:05;;;;;;;23.52;10.68;;;;;;;0.87;100.00;102731.22;4872871;29;20051;-70
2021/12/21 09:46:31;;;;;;;20.73;11.07;;;;;;;1.05;100.00;102737.94;4906202;28;20031;-69
2021/12/21 09:48:56;;;;;;;21.50;11.25;;;;;;;1.16;100.00;102727.44;4897769;28;20043;-69
2021/12/21 09:51:22;;;;;;;21.05;10.63;;;;;;;1.12;100.00;102731.28;4894440;29;20062;-69
2021/12/21 09:53:48;;;;;;;21.20;10.80;;;;;;;1.15;100.00;102731.03;4904394;28;20045;-71
2021/12/21 09:56:13;;;;;;;20.88;10.98;;;;;;;1.45;100.00;102731.72;4857001;29;20211;-71
2021/12/21 09:58:39;;;;;;;17.08;9.80;;;;;;;1.64;100.00;102737.41;4888377;29;20053;-71
2021/12/21 10:01:05;;;;;;;21.23;9.43;;;;;;;1.69;100.00;102740.63;4898612;29;20134;-72
2021/12/21 10:03:30;;;;;;;17.42;9.23;;;;;;;2.06;100.00;102737.97;4867577;29;20118;-70
2021/12/21 10:06:10;;;;;;;16.45;8.43;;;;;;;2.41;100.00;102739.88;4905666;29;20090;-70
2021/12/21 10:08:35;;;;;;;16.80;7.93;;;;;;;2.37;100.00;102747.22;4887740;29;20051;-71
2021/12/21 10:11:02;;;;;;;20.17;8.43;;;;;;;2.72;100.00;102743.75;4905955;29;20142;-71
2021/12/21 10:13:27;;;;;;;16.25;9.07;;;;;;;3.13;100.00;102743.28;4882974;29;20047;-71
2021/12/21 10:15:56;;;;;;;18.73;7.95;;;;;;;3.10;100.00;102739.03;4893668;29;20055;-71
2021/12/21 10:18:23;;;;;;;20.10;8.70;;;;;;;3.27;100.00;102731.59;4905399;28;20035;-71
2021/12/21 10:20:50;;;;;;;16.60;8.13;;;;;;;3.35;100.00;102729.16;4873000;29;20047;-71
2021/12/21 10:23:33;;;;;;;16.63;8.35;;;;;;;3.48;100.00;102719.25;4890864;29;20117;-71
2021/12/21 10:26:10;;;;;;;15.73;8.63;;;;;;;3.69;100.00;102722.03;4878084;29;20081;-71
2021/12/21 10:28:39;;;;;;;18.70;8.30;;;;;;;3.72;100.00;102726.25;4904114;28;20496;-71
2021/12/21 10:31:08;;;;;;;14.43;8.15;;;;;;;3.62;100.00;102725.31;4899296;29;20035;-71
2021/12/21 10:33:35;;;;;;;13.52;8.30;;;;;;;3.79;100.00;102717.66;4879213;29;22781;-71
2021/12/21 10:36:03;;;;;;;17.25;7.55;;;;;;;3.97;100.00;102715.34;4887473;29;20059;-71
2021/12/21 10:38:30;;;;;;;16.83;8.20;;;;;;;4.40;100.00;102721.66;4889191;29;20054;-71
2021/12/21 10:41:26;;;;;;;16.38;8.82;;;;;;;4.74;100.00;102709.03;4903831;29;20096;-71
2021/12/21 10:44:02;;;;;;;15.73;8.20;;;;;;;5.21;100.00;102704.13;4881914;28;20145;-70
2021/12/21 10:46:29;;;;;;;13.98;7.45;;;;;;;5.65;100.00;102699.41;4905111;29;20536;-70
2021/12/21 10:49:09;;;;;;;16.33;7.50;;;;;;;5.63;100.00;102707.56;4904686;28;20090;-70
2021/12/21 10:51:36;;;;;;;15.63;8.20;;;;;;;5.71;100.00;102694.38;4876555;29;20086;-70
2021/12/21 10:54:02;;;;;;;17.52;8.48;;;;;;;5.89;100.00;102699.06;4887598;29;20054;-70
2021/12/21 10:56:27;;;;;;;13.93;7.55;;;;;;;6.35;100.00;102698.50;4887448;29;20082;-70
2021/12/21 10:58:53;;;;;;;11.07;7.45;;;;;;;6.17;100.00;102694.78;4905357;29;20057;-70
2021/12/21 11:01:26;;;;;;;12.85;7.15;;;;;;;5.97;100.00;102693.94;4881729;28;20066;-71
2021/12/21 11:03:54;;;;;;;18.15;7.63;;;;;;;6.02;100.00;102690.84;4895569;29;20051;-71
2021/12/21 11:06:26;;;;;;;16.60;8.10;;;;;;;6.16;100.00;102693.09;4889460;29;20028;-71
2021/12/21 11:08:54;;;;;;;16.77;7.27;;;;;;;6.27;100.00;102694.81;4889607;28;20340;-70
2021/12/21 11:11:34;;;;;;;16.73;7.35;;;;;;;6.64;100.00;102684.28;4891224;29;20423;-70
2021/12/21 11:14:01;;;;;;;14.20;7.65;;;;;;;6.74;100.00;102687.78;4872362;29;20063;-71
2021/12/21 11:16:35;;;;;;;17.17;7.30;;;;;;;6.56;100.00;102684.09;4907816;29;20026;-70
2021/12/21 11:19:02;;;;;;;17.40;7.80;;;;;;;6.42;100.00;102683.56;4903409;28;20027;-70
2021/12/21 11:21:30;;;;;;;34.55;9.25;;;;;;;6.18;100.00;102688.47;4890332;29;20134;-70
2021/12/21 11:23:55;;;;;;;12.18;6.97;;;;;;;6.33;100.00;102683.56;4903687;28;20044;-70
2021/12/21 11:26:22;;;;;;;18.38;6.50;;;;;;;6.66;100.00;102677.75;4892713;29;20066;-71
2021/12/21 11:28:49;;;;;;;12.60;6.80;;;;;;;6.55;100.00;102679.75;4907787;28;20801;-70
2021/12/21 11:31:17;;;;;;;14.48;6.45;;;;;;;6.51;100.00;102676.50;4906645;28;20047;-71
2021/12/21 11:33:44;;;;;;;12.73;6.35;;;;;;;6.44;100.00;102675.38;4881633;29;20137;-70
2021/12/21 11:38:57;;;;;;;13.68;6.50;;;;;;;6.81;100.00;102666.59;4890512;29;20054;-71
2021/12/21 11:41:23;;;;;;;14.70;7.25;;;;;;;6.63;100.00;102661.13;4908035;28;20036;-70
2021/12/21 11:44:02;;;;;;;13.32;7.18;;;;;;;6.83;100.00;102660.13;4901907;29;20051;-71
2021/12/21 11:46:54;;;;;;;15.43;6.45;;;;;;;6.64;100.00;102646.78;4891934;29;20563;-69
2021/12/21 11:49:33;;;;;;;12.20;6.57;;;;;;;7.01;100.00;102646.81;4902030;28;20024;-70
2021/12/21 11:52:12;;;;;;;12.05;6.38;;;;;;;7.12;100.00;102654.69;4876222;29;20074;-70
2021/12/21 11:54:48;;;;;;;13.05;6.07;;;;;;;7.47;100.00;102642.41;4902890;29;21019;-70
2021/12/21 11:57:14;;;;;;;12.98;5.95;;;;;;;7.67;100.00;102653.91;4888063;29;20067;-70
2021/12/21 11:59:40;;;;;;;10.05;6.25;;;;;;;7.39;93.04;102645.84;4903236;29;20027;-71
2021/12/21 12:02:07;;;;;;;16.05;6.40;;;;;;;7.12;92.58;102637.75;4893903;29;20094;-71
2021/12/21 12:04:35;;;;;;;10.55;5.95;;;;;;;7.30;100.00;102627.97;4874435;29;20046;-70
2021/12/21 12:07:01;;;;;;;11.65;6.30;;;;;;;7.80;100.00;102640.97;4890098;29;20035;-70
2021/12/21 12:09:32;;;;;;;10.85;5.70;;;;;;;7.91;100.00;102639.09;4891012;28;21059;-71
2021/12/21 12:12:12;;;;;;;11.13;6.30;;;;;;;7.34;85.52;102644.63;4906539;29;20118;-70
2021/12/21 12:14:39;;;;;;;11.93;6.68;;;;;;;7.26;95.54;102634.59;4890470;28;20060;-70
2021/12/21 12:17:31;;;;;;;18.00;6.40;;;;;;;7.03;92.33;102641.34;4889643;29;20118;-70
2021/12/21 12:20:05;;;;;;;13.48;6.05;;;;;;;6.93;95.29;102634.16;4899404;29;20134;-70
2021/12/21 12:22:38;;;;;;;15.60;6.93;;;;;;;7.29;100.00;102639.69;4896824;29;20238;-69